sensor_id;sensor_type;location;lat;lon;timestamp;P1;durP1;ratioP1;P2;durP2;ratioP2
8413;SDS011;4244;48.684;9.028;2023-04-06T00:01:49;11.60;;;10.50;;
8413;SDS011;4244;48.684;9.028;2023-04-06T00:04:15;10.90;;;9.80;;
8413;SDS011;4244;48.684;9.028;2023-04-06T00:06:41;12.20;;;11.10;;
8413;SDS011;4244;48.684;9.028;2023-04-06T00:09:07;12.90;;;11.27;;
8413;SDS011;4244;48.684;9.028;2023-04-06T00:11:33;13.10;;;11.80;;
8413;SDS011;4244;48.684;9.028;2023-04-06T00:13:59;12.37;;;11.13;;
8413;SDS011;4244;48.684;9.028;2023-04-06T00:16:25;11.00;;;9.90;;
8413;SDS011;4244;48.684;9.028;2023-04-06T00:18:50;12.17;;;10.90;;
8413;SDS011;4244;48.684;9.028;2023-04-06T00:21:17;12.30;;;11.00;;
8413;SDS011;4244;48.684;9.028;2023-04-06T00:23:42;13.33;;;11.80;;
8413;SDS011;4244;48.684;9.028;2023-04-06T00:26:08;12.53;;;10.63;;
8413;SDS011;4244;48.684;9.028;2023-04-06T00:28:35;12.33;;;11.23;;
8413;SDS011;4244;48.684;9.028;2023-04-06T00:31:04;11.30;;;10.00;;
8413;SDS011;4244;48.684;9.028;2023-04-06T00:33:29;11.83;;;10.60;;
8413;SDS011;4244;48.684;9.028;2023-04-06T00:35:55;12.33;;;11.00;;
8413;SDS011;4244;48.684;9.028;2023-04-06T00:38:21;13.50;;;11.00;;
8413;SDS011;4244;48.684;9.028;2023-04-06T00:40:47;12.70;;;10.53;;
8413;SDS011;4244;48.684;9.028;2023-04-06T00:43:12;12.23;;;10.93;;
8413;SDS011;4244;48.684;9.028;2023-04-06T00:45:39;13.10;;;11.90;;
8413;SDS011;4244;48.684;9.028;2023-04-06T00:48:06;12.97;;;11.67;;
8413;SDS011;4244;48.684;9.028;2023-04-06T00:50:32;12.30;;;10.40;;
8413;SDS011;4244;48.684;9.028;2023-04-06T00:52:58;12.60;;;11.40;;
8413;SDS011;4244;48.684;9.028;2023-04-06T00:55:25;11.23;;;9.77;;
8413;SDS011;4244;48.684;9.028;2023-04-06T00:57:52;13.00;;;11.53;;
8413;SDS011;4244;48.684;9.028;2023-04-06T01:00:17;13.03;;;11.47;;
8413;SDS011;4244;48.684;9.028;2023-04-06T01:02:43;13.50;;;11.17;;
8413;SDS011;4244;48.684;9.028;2023-04-06T01:05:10;14.23;;;12.20;;
8413;SDS011;4244;48.684;9.028;2023-04-06T01:07:36;12.67;;;11.30;;
8413;SDS011;4244;48.684;9.028;2023-04-06T01:10:02;15.00;;;11.30;;
8413;SDS011;4244;48.684;9.028;2023-04-06T01:12:28;12.27;;;10.80;;
8413;SDS011;4244;48.684;9.028;2023-04-06T01:14:54;12.63;;;11.33;;
8413;SDS011;4244;48.684;9.028;2023-04-06T01:17:20;12.93;;;11.53;;
8413;SDS011;4244;48.684;9.028;2023-04-06T01:19:46;11.97;;;10.67;;
8413;SDS011;4244;48.684;9.028;2023-04-06T01:22:17;12.90;;;11.60;;
8413;SDS011;4244;48.684;9.028;2023-04-06T01:24:44;13.10;;;11.70;;
8413;SDS011;4244;48.684;9.028;2023-04-06T01:27:10;13.23;;;11.87;;
8413;SDS011;4244;48.684;9.028;2023-04-06T01:29:36;13.00;;;11.60;;
8413;SDS011;4244;48.684;9.028;2023-04-06T01:32:01;14.47;;;11.43;;
8413;SDS011;4244;48.684;9.028;2023-04-06T01:34:27;14.07;;;12.40;;
8413;SDS011;4244;48.684;9.028;2023-04-06T01:36:54;12.67;;;11.30;;
8413;SDS011;4244;48.684;9.028;2023-04-06T01:39:20;11.77;;;10.57;;
8413;SDS011;4244;48.684;9.028;2023-04-06T01:41:46;14.23;;;12.80;;
8413;SDS011;4244;48.684;9.028;2023-04-06T01:44:16;12.30;;;11.00;;
8413;SDS011;4244;48.684;9.028;2023-04-06T01:46:43;13.60;;;12.20;;
8413;SDS011;4244;48.684;9.028;2023-04-06T01:49:08;13.50;;;12.20;;
8413;SDS011;4244;48.684;9.028;2023-04-06T01:51:34;13.53;;;11.90;;
8413;SDS011;4244;48.684;9.028;2023-04-06T01:54:00;15.00;;;12.83;;
8413;SDS011;4244;48.684;9.028;2023-04-06T01:59:10;14.83;;;12.03;;
8413;SDS011;4244;48.684;9.028;2023-04-06T02:01:36;14.13;;;11.80;;
8413;SDS011;4244;48.684;9.028;2023-04-06T02:04:02;14.27;;;11.83;;
8413;SDS011;4244;48.684;9.028;2023-04-06T02:06:27;15.17;;;12.00;;
8413;SDS011;4244;48.684;9.028;2023-04-06T02:08:53;12.27;;;11.03;;
8413;SDS011;4244;48.684;9.028;2023-04-06T02:11:19;16.60;;;11.03;;
8413;SDS011;4244;48.684;9.028;2023-04-06T02:13:45;12.07;;;10.53;;
8413;SDS011;4244;48.684;9.028;2023-04-06T02:16:10;15.40;;;11.93;;
8413;SDS011;4244;48.684;9.028;2023-04-06T02:18:36;12.17;;;10.90;;
8413;SDS011;4244;48.684;9.028;2023-04-06T02:21:02;12.87;;;11.57;;
8413;SDS011;4244;48.684;9.028;2023-04-06T02:23:27;12.20;;;11.03;;
8413;SDS011;4244;48.684;9.028;2023-04-06T02:25:53;12.87;;;11.43;;
8413;SDS011;4244;48.684;9.028;2023-04-06T02:28:19;14.20;;;12.00;;
8413;SDS011;4244;48.684;9.028;2023-04-06T02:30:45;13.73;;;12.17;;
8413;SDS011;4244;48.684;9.028;2023-04-06T02:33:11;12.00;;;10.83;;
8413;SDS011;4244;48.684;9.028;2023-04-06T02:35:37;14.53;;;13.10;;
8413;SDS011;4244;48.684;9.028;2023-04-06T02:38:02;13.77;;;11.87;;
8413;SDS011;4244;48.684;9.028;2023-04-06T02:40:28;12.87;;;11.40;;
8413;SDS011;4244;48.684;9.028;2023-04-06T02:42:54;13.40;;;11.83;;
8413;SDS011;4244;48.684;9.028;2023-04-06T02:45:20;14.03;;;12.10;;
8413;SDS011;4244;48.684;9.028;2023-04-06T02:47:45;14.23;;;12.30;;
8413;SDS011;4244;48.684;9.028;2023-04-06T02:50:11;13.47;;;12.17;;
8413;SDS011;4244;48.684;9.028;2023-04-06T02:52:37;13.73;;;12.40;;
8413;SDS011;4244;48.684;9.028;2023-04-06T02:55:03;13.77;;;12.13;;
8413;SDS011;4244;48.684;9.028;2023-04-06T02:57:29;13.10;;;11.60;;
8413;SDS011;4244;48.684;9.028;2023-04-06T02:59:54;14.70;;;13.10;;
8413;SDS011;4244;48.684;9.028;2023-04-06T03:02:20;14.47;;;10.90;;
8413;SDS011;4244;48.684;9.028;2023-04-06T03:04:46;13.23;;;11.83;;
8413;SDS011;4244;48.684;9.028;2023-04-06T03:07:12;14.10;;;12.17;;
8413;SDS011;4244;48.684;9.028;2023-04-06T03:09:38;15.43;;;13.50;;
8413;SDS011;4244;48.684;9.028;2023-04-06T03:12:03;13.90;;;12.43;;
8413;SDS011;4244;48.684;9.028;2023-04-06T03:14:29;12.10;;;10.90;;
8413;SDS011;4244;48.684;9.028;2023-04-06T03:16:55;13.77;;;11.33;;
8413;SDS011;4244;48.684;9.028;2023-04-06T03:19:21;15.27;;;12.80;;
8413;SDS011;4244;48.684;9.028;2023-04-06T03:21:46;14.13;;;11.13;;
8413;SDS011;4244;48.684;9.028;2023-04-06T03:24:12;12.87;;;11.57;;
8413;SDS011;4244;48.684;9.028;2023-04-06T03:26:39;13.93;;;11.00;;
8413;SDS011;4244;48.684;9.028;2023-04-06T03:29:05;14.17;;;11.77;;
8413;SDS011;4244;48.684;9.028;2023-04-06T03:31:31;12.40;;;11.10;;
8413;SDS011;4244;48.684;9.028;2023-04-06T03:33:56;12.27;;;10.97;;
8413;SDS011;4244;48.684;9.028;2023-04-06T03:36:22;14.13;;;11.93;;
8413;SDS011;4244;48.684;9.028;2023-04-06T03:38:48;14.90;;;11.50;;
8413;SDS011;4244;48.684;9.028;2023-04-06T03:41:14;14.80;;;11.60;;
8413;SDS011;4244;48.684;9.028;2023-04-06T03:43:39;16.20;;;11.50;;
8413;SDS011;4244;48.684;9.028;2023-04-06T03:46:05;13.00;;;11.67;;
8413;SDS011;4244;48.684;9.028;2023-04-06T03:48:31;13.37;;;12.00;;
8413;SDS011;4244;48.684;9.028;2023-04-06T03:50:56;13.40;;;11.30;;
8413;SDS011;4244;48.684;9.028;2023-04-06T03:53:22;13.50;;;12.07;;
8413;SDS011;4244;48.684;9.028;2023-04-06T03:55:48;13.00;;;11.70;;
8413;SDS011;4244;48.684;9.028;2023-04-06T03:58:13;13.60;;;12.20;;
8413;SDS011;4244;48.684;9.028;2023-04-06T04:00:39;15.60;;;12.60;;
8413;SDS011;4244;48.684;9.028;2023-04-06T04:03:05;13.77;;;11.60;;
8413;SDS011;4244;48.684;9.028;2023-04-06T04:05:31;14.50;;;12.03;;
8413;SDS011;4244;48.684;9.028;2023-04-06T04:07:56;15.27;;;12.37;;
8413;SDS011;4244;48.684;9.028;2023-04-06T04:10:22;13.70;;;11.87;;
8413;SDS011;4244;48.684;9.028;2023-04-06T04:12:48;14.73;;;12.70;;
8413;SDS011;4244;48.684;9.028;2023-04-06T04:15:13;13.73;;;12.20;;
8413;SDS011;4244;48.684;9.028;2023-04-06T04:17:39;15.50;;;11.80;;
8413;SDS011;4244;48.684;9.028;2023-04-06T04:20:05;15.30;;;12.27;;
8413;SDS011;4244;48.684;9.028;2023-04-06T04:22:31;13.70;;;12.00;;
8413;SDS011;4244;48.684;9.028;2023-04-06T04:24:57;13.67;;;12.13;;
8413;SDS011;4244;48.684;9.028;2023-04-06T04:27:23;15.40;;;11.90;;
8413;SDS011;4244;48.684;9.028;2023-04-06T04:29:49;13.53;;;12.13;;
8413;SDS011;4244;48.684;9.028;2023-04-06T04:32:14;15.00;;;13.50;;
8413;SDS011;4244;48.684;9.028;2023-04-06T04:34:41;14.03;;;12.30;;
8413;SDS011;4244;48.684;9.028;2023-04-06T04:37:07;14.10;;;11.83;;
8413;SDS011;4244;48.684;9.028;2023-04-06T04:39:32;14.87;;;12.53;;
8413;SDS011;4244;48.684;9.028;2023-04-06T04:41:58;13.80;;;12.23;;
8413;SDS011;4244;48.684;9.028;2023-04-06T04:44:24;12.20;;;11.10;;
8413;SDS011;4244;48.684;9.028;2023-04-06T04:46:50;17.33;;;12.40;;
8413;SDS011;4244;48.684;9.028;2023-04-06T04:49:15;16.10;;;11.97;;
8413;SDS011;4244;48.684;9.028;2023-04-06T04:51:41;14.17;;;11.97;;
8413;SDS011;4244;48.684;9.028;2023-04-06T04:54:07;12.77;;;11.20;;
8413;SDS011;4244;48.684;9.028;2023-04-06T04:56:32;13.07;;;11.67;;
8413;SDS011;4244;48.684;9.028;2023-04-06T04:58:58;13.07;;;11.17;;
8413;SDS011;4244;48.684;9.028;2023-04-06T05:01:24;14.97;;;12.80;;
8413;SDS011;4244;48.684;9.028;2023-04-06T05:03:50;13.03;;;11.63;;
8413;SDS011;4244;48.684;9.028;2023-04-06T05:06:15;12.97;;;10.87;;
8413;SDS011;4244;48.684;9.028;2023-04-06T05:08:41;12.30;;;11.00;;
8413;SDS011;4244;48.684;9.028;2023-04-06T05:11:07;13.87;;;12.43;;
8413;SDS011;4244;48.684;9.028;2023-04-06T05:13:34;15.77;;;12.30;;
8413;SDS011;4244;48.684;9.028;2023-04-06T05:16:00;14.60;;;13.00;;
8413;SDS011;4244;48.684;9.028;2023-04-06T05:18:26;13.93;;;11.60;;
8413;SDS011;4244;48.684;9.028;2023-04-06T05:20:52;16.43;;;13.30;;
8413;SDS011;4244;48.684;9.028;2023-04-06T05:23:17;13.63;;;12.20;;
8413;SDS011;4244;48.684;9.028;2023-04-06T05:25:43;15.03;;;12.20;;
8413;SDS011;4244;48.684;9.028;2023-04-06T05:28:09;13.07;;;11.77;;
8413;SDS011;4244;48.684;9.028;2023-04-06T05:30:35;15.60;;;13.13;;
8413;SDS011;4244;48.684;9.028;2023-04-06T05:33:01;14.40;;;11.80;;
8413;SDS011;4244;48.684;9.028;2023-04-06T05:35:27;14.00;;;11.73;;
8413;SDS011;4244;48.684;9.028;2023-04-06T05:37:52;13.97;;;12.37;;
8413;SDS011;4244;48.684;9.028;2023-04-06T05:40:18;17.77;;;13.10;;
8413;SDS011;4244;48.684;9.028;2023-04-06T05:42:44;18.33;;;13.13;;
8413;SDS011;4244;48.684;9.028;2023-04-06T05:45:10;13.53;;;11.83;;
8413;SDS011;4244;48.684;9.028;2023-04-06T05:47:41;14.03;;;11.40;;
8413;SDS011;4244;48.684;9.028;2023-04-06T05:50:08;13.80;;;12.37;;
8413;SDS011;4244;48.684;9.028;2023-04-06T05:52:33;16.60;;;12.60;;
8413;SDS011;4244;48.684;9.028;2023-04-06T05:54:59;14.60;;;12.17;;
8413;SDS011;4244;48.684;9.028;2023-04-06T05:57:25;14.40;;;12.37;;
8413;SDS011;4244;48.684;9.028;2023-04-06T05:59:51;14.90;;;11.50;;
8413;SDS011;4244;48.684;9.028;2023-04-06T06:02:17;14.40;;;12.20;;
8413;SDS011;4244;48.684;9.028;2023-04-06T06:04:43;14.03;;;12.77;;
8413;SDS011;4244;48.684;9.028;2023-04-06T06:07:08;15.30;;;13.00;;
8413;SDS011;4244;48.684;9.028;2023-04-06T06:09:34;15.70;;;13.10;;
8413;SDS011;4244;48.684;9.028;2023-04-06T06:12:00;14.00;;;12.50;;
8413;SDS011;4244;48.684;9.028;2023-04-06T06:14:26;14.40;;;12.90;;
8413;SDS011;4244;48.684;9.028;2023-04-06T06:16:55;13.50;;;12.27;;
8413;SDS011;4244;48.684;9.028;2023-04-06T06:19:20;14.47;;;12.97;;
8413;SDS011;4244;48.684;9.028;2023-04-06T06:21:46;17.20;;;13.93;;
8413;SDS011;4244;48.684;9.028;2023-04-06T06:24:12;16.40;;;14.70;;
8413;SDS011;4244;48.684;9.028;2023-04-06T06:26:37;19.00;;;15.13;;
8413;SDS011;4244;48.684;9.028;2023-04-06T06:29:04;20.97;;;16.93;;
8413;SDS011;4244;48.684;9.028;2023-04-06T06:31:31;24.03;;;17.93;;
8413;SDS011;4244;48.684;9.028;2023-04-06T06:33:56;21.70;;;19.00;;
8413;SDS011;4244;48.684;9.028;2023-04-06T06:36:22;26.63;;;21.87;;
8413;SDS011;4244;48.684;9.028;2023-04-06T06:38:48;31.80;;;23.80;;
8413;SDS011;4244;48.684;9.028;2023-04-06T06:41:14;27.60;;;21.27;;
8413;SDS011;4244;48.684;9.028;2023-04-06T06:43:40;25.70;;;20.43;;
8413;SDS011;4244;48.684;9.028;2023-04-06T06:46:07;21.07;;;17.37;;
8413;SDS011;4244;48.684;9.028;2023-04-06T06:48:33;17.63;;;15.83;;
8413;SDS011;4244;48.684;9.028;2023-04-06T06:50:58;17.23;;;15.40;;
8413;SDS011;4244;48.684;9.028;2023-04-06T06:53:24;15.37;;;13.73;;
8413;SDS011;4244;48.684;9.028;2023-04-06T06:55:50;15.00;;;13.50;;
8413;SDS011;4244;48.684;9.028;2023-04-06T06:58:18;15.30;;;13.70;;
8413;SDS011;4244;48.684;9.028;2023-04-06T07:00:47;13.57;;;12.20;;
8413;SDS011;4244;48.684;9.028;2023-04-06T07:03:12;14.37;;;12.87;;
8413;SDS011;4244;48.684;9.028;2023-04-06T07:05:38;12.00;;;10.70;;
8413;SDS011;4244;48.684;9.028;2023-04-06T07:08:05;12.20;;;11.00;;
8413;SDS011;4244;48.684;9.028;2023-04-06T07:10:30;12.53;;;11.33;;
8413;SDS011;4244;48.684;9.028;2023-04-06T07:12:56;11.73;;;10.63;;
8413;SDS011;4244;48.684;9.028;2023-04-06T07:15:22;11.77;;;10.50;;
8413;SDS011;4244;48.684;9.028;2023-04-06T07:17:48;12.63;;;11.43;;
8413;SDS011;4244;48.684;9.028;2023-04-06T07:20:14;11.47;;;10.47;;
8413;SDS011;4244;48.684;9.028;2023-04-06T07:22:40;11.07;;;9.90;;
8413;SDS011;4244;48.684;9.028;2023-04-06T07:25:06;11.00;;;9.90;;
8413;SDS011;4244;48.684;9.028;2023-04-06T07:27:32;11.70;;;10.70;;
8413;SDS011;4244;48.684;9.028;2023-04-06T07:29:58;10.43;;;9.43;;
8413;SDS011;4244;48.684;9.028;2023-04-06T07:32:24;10.97;;;9.87;;
8413;SDS011;4244;48.684;9.028;2023-04-06T07:34:51;10.87;;;9.87;;
8413;SDS011;4244;48.684;9.028;2023-04-06T07:37:16;11.33;;;10.23;;
8413;SDS011;4244;48.684;9.028;2023-04-06T07:39:42;13.87;;;11.30;;
8413;SDS011;4244;48.684;9.028;2023-04-06T07:42:08;11.10;;;10.10;;
8413;SDS011;4244;48.684;9.028;2023-04-06T07:44:33;12.03;;;10.83;;
8413;SDS011;4244;48.684;9.028;2023-04-06T07:46:59;11.27;;;10.27;;
8413;SDS011;4244;48.684;9.028;2023-04-06T07:49:25;12.23;;;11.13;;
8413;SDS011;4244;48.684;9.028;2023-04-06T07:51:51;11.60;;;10.33;;
8413;SDS011;4244;48.684;9.028;2023-04-06T07:54:16;11.53;;;10.43;;
8413;SDS011;4244;48.684;9.028;2023-04-06T07:56:42;12.43;;;11.00;;
8413;SDS011;4244;48.684;9.028;2023-04-06T07:59:08;11.57;;;10.57;;
8413;SDS011;4244;48.684;9.028;2023-04-06T08:01:34;12.20;;;11.10;;
8413;SDS011;4244;48.684;9.028;2023-04-06T08:03:59;11.63;;;10.63;;
8413;SDS011;4244;48.684;9.028;2023-04-06T08:06:27;12.40;;;11.30;;
8413;SDS011;4244;48.684;9.028;2023-04-06T08:08:53;11.63;;;10.53;;
8413;SDS011;4244;48.684;9.028;2023-04-06T08:11:19;10.80;;;9.80;;
8413;SDS011;4244;48.684;9.028;2023-04-06T08:13:45;11.30;;;10.13;;
8413;SDS011;4244;48.684;9.028;2023-04-06T08:16:11;11.20;;;10.20;;
8413;SDS011;4244;48.684;9.028;2023-04-06T08:18:37;11.33;;;10.33;;
8413;SDS011;4244;48.684;9.028;2023-04-06T08:21:03;12.73;;;11.70;;
8413;SDS011;4244;48.684;9.028;2023-04-06T08:23:29;12.10;;;11.00;;
8413;SDS011;4244;48.684;9.028;2023-04-06T08:25:55;10.43;;;9.60;;
8413;SDS011;4244;48.684;9.028;2023-04-06T08:28:21;11.37;;;10.40;;
8413;SDS011;4244;48.684;9.028;2023-04-06T08:30:47;12.27;;;11.27;;
8413;SDS011;4244;48.684;9.028;2023-04-06T08:33:13;10.87;;;9.87;;
8413;SDS011;4244;48.684;9.028;2023-04-06T08:35:39;11.70;;;10.77;;
8413;SDS011;4244;48.684;9.028;2023-04-06T08:38:05;12.37;;;11.27;;
8413;SDS011;4244;48.684;9.028;2023-04-06T08:40:38;12.33;;;11.23;;
8413;SDS011;4244;48.684;9.028;2023-04-06T08:43:06;11.50;;;10.40;;
8413;SDS011;4244;48.684;9.028;2023-04-06T08:45:33;11.67;;;10.63;;
8413;SDS011;4244;48.684;9.028;2023-04-06T08:47:59;10.97;;;10.07;;
8413;SDS011;4244;48.684;9.028;2023-04-06T08:50:27;11.00;;;10.00;;
8413;SDS011;4244;48.684;9.028;2023-04-06T08:52:54;11.53;;;10.53;;
8413;SDS011;4244;48.684;9.028;2023-04-06T08:55:22;9.53;;;8.73;;
8413;SDS011;4244;48.684;9.028;2023-04-06T08:57:48;10.47;;;9.67;;
8413;SDS011;4244;48.684;9.028;2023-04-06T09:00:14;11.70;;;10.80;;
8413;SDS011;4244;48.684;9.028;2023-04-06T09:02:42;10.63;;;9.73;;
8413;SDS011;4244;48.684;9.028;2023-04-06T09:05:08;9.10;;;8.37;;
8413;SDS011;4244;48.684;9.028;2023-04-06T09:07:37;8.80;;;8.00;;
8413;SDS011;4244;48.684;9.028;2023-04-06T09:10:04;7.70;;;7.00;;
8413;SDS011;4244;48.684;9.028;2023-04-06T09:12:31;5.60;;;5.10;;
8413;SDS011;4244;48.684;9.028;2023-04-06T09:15:00;5.93;;;5.20;;
8413;SDS011;4244;48.684;9.028;2023-04-06T09:17:27;5.97;;;5.47;;
8413;SDS011;4244;48.684;9.028;2023-04-06T09:19:58;6.00;;;5.40;;
8413;SDS011;4244;48.684;9.028;2023-04-06T09:22:25;6.73;;;6.13;;
8413;SDS011;4244;48.684;9.028;2023-04-06T09:24:52;7.60;;;6.70;;
8413;SDS011;4244;48.684;9.028;2023-04-06T09:27:29;6.77;;;6.23;;
8413;SDS011;4244;48.684;9.028;2023-04-06T09:30:07;6.70;;;6.10;;
8413;SDS011;4244;48.684;9.028;2023-04-06T09:32:44;5.60;;;5.13;;
8413;SDS011;4244;48.684;9.028;2023-04-06T09:35:17;5.00;;;4.60;;
8413;SDS011;4244;48.684;9.028;2023-04-06T09:37:47;6.90;;;6.30;;
8413;SDS011;4244;48.684;9.028;2023-04-06T09:40:16;6.20;;;5.70;;
8413;SDS011;4244;48.684;9.028;2023-04-06T09:42:47;6.77;;;6.17;;
8413;SDS011;4244;48.684;9.028;2023-04-06T09:45:15;5.47;;;4.97;;
8413;SDS011;4244;48.684;9.028;2023-04-06T09:47:44;5.00;;;4.60;;
8413;SDS011;4244;48.684;9.028;2023-04-06T09:50:11;5.37;;;4.93;;
8413;SDS011;4244;48.684;9.028;2023-04-06T09:52:42;5.40;;;4.97;;
8413;SDS011;4244;48.684;9.028;2023-04-06T09:58:15;6.57;;;6.07;;
8413;SDS011;4244;48.684;9.028;2023-04-06T10:00:56;6.07;;;5.53;;
8413;SDS011;4244;48.684;9.028;2023-04-06T10:06:13;5.83;;;5.43;;
8413;SDS011;4244;48.684;9.028;2023-04-06T10:08:40;7.00;;;6.47;;
8413;SDS011;4244;48.684;9.028;2023-04-06T10:11:06;7.47;;;6.97;;
8413;SDS011;4244;48.684;9.028;2023-04-06T10:13:34;5.30;;;4.90;;
8413;SDS011;4244;48.684;9.028;2023-04-06T10:16:00;5.97;;;5.47;;
8413;SDS011;4244;48.684;9.028;2023-04-06T10:18:29;6.40;;;5.90;;
8413;SDS011;4244;48.684;9.028;2023-04-06T10:21:04;4.83;;;4.53;;
8413;SDS011;4244;48.684;9.028;2023-04-06T10:26:01;5.73;;;5.33;;
8413;SDS011;4244;48.684;9.028;2023-04-06T10:28:34;6.10;;;5.50;;
8413;SDS011;4244;48.684;9.028;2023-04-06T10:31:05;6.03;;;5.23;;
8413;SDS011;4244;48.684;9.028;2023-04-06T10:33:31;5.27;;;4.83;;
8413;SDS011;4244;48.684;9.028;2023-04-06T10:35:57;5.50;;;5.10;;
8413;SDS011;4244;48.684;9.028;2023-04-06T10:38:36;4.97;;;4.67;;
8413;SDS011;4244;48.684;9.028;2023-04-06T10:41:09;4.90;;;4.50;;
8413;SDS011;4244;48.684;9.028;2023-04-06T10:44:01;4.27;;;3.97;;
8413;SDS011;4244;48.684;9.028;2023-04-06T10:46:31;5.17;;;4.77;;
8413;SDS011;4244;48.684;9.028;2023-04-06T10:48:57;3.93;;;3.60;;
8413;SDS011;4244;48.684;9.028;2023-04-06T10:51:26;4.23;;;3.93;;
8413;SDS011;4244;48.684;9.028;2023-04-06T10:53:53;5.37;;;4.97;;
8413;SDS011;4244;48.684;9.028;2023-04-06T10:56:21;5.13;;;4.73;;
8413;SDS011;4244;48.684;9.028;2023-04-06T10:58:49;5.03;;;4.63;;
8413;SDS011;4244;48.684;9.028;2023-04-06T11:01:23;5.10;;;4.70;;
8413;SDS011;4244;48.684;9.028;2023-04-06T11:03:52;4.30;;;4.00;;
8413;SDS011;4244;48.684;9.028;2023-04-06T11:06:27;5.90;;;5.50;;
8413;SDS011;4244;48.684;9.028;2023-04-06T11:08:55;4.70;;;4.40;;
8413;SDS011;4244;48.684;9.028;2023-04-06T11:11:22;6.07;;;4.80;;
8413;SDS011;4244;48.684;9.028;2023-04-06T11:13:51;6.90;;;6.27;;
8413;SDS011;4244;48.684;9.028;2023-04-06T11:16:31;4.00;;;3.60;;
8413;SDS011;4244;48.684;9.028;2023-04-06T11:18:59;4.50;;;4.10;;
8413;SDS011;4244;48.684;9.028;2023-04-06T11:21:37;4.90;;;4.60;;
8413;SDS011;4244;48.684;9.028;2023-04-06T11:24:20;4.87;;;4.57;;
8413;SDS011;4244;48.684;9.028;2023-04-06T11:29:19;4.07;;;3.80;;
8413;SDS011;4244;48.684;9.028;2023-04-06T11:31:47;5.00;;;4.70;;
8413;SDS011;4244;48.684;9.028;2023-04-06T11:34:16;3.73;;;3.53;;
8413;SDS011;4244;48.684;9.028;2023-04-06T11:36:46;4.20;;;3.90;;
8413;SDS011;4244;48.684;9.028;2023-04-06T11:39:13;5.03;;;4.47;;
8413;SDS011;4244;48.684;9.028;2023-04-06T11:41:59;4.53;;;4.23;;
8413;SDS011;4244;48.684;9.028;2023-04-06T11:47:04;4.20;;;3.90;;
8413;SDS011;4244;48.684;9.028;2023-04-06T11:49:32;4.00;;;3.70;;
8413;SDS011;4244;48.684;9.028;2023-04-06T11:51:59;4.60;;;4.30;;
8413;SDS011;4244;48.684;9.028;2023-04-06T11:54:37;6.10;;;5.60;;
8413;SDS011;4244;48.684;9.028;2023-04-06T11:57:04;4.13;;;3.83;;
8413;SDS011;4244;48.684;9.028;2023-04-06T11:59:30;4.73;;;4.23;;
8413;SDS011;4244;48.684;9.028;2023-04-06T12:01:57;4.33;;;4.03;;
8413;SDS011;4244;48.684;9.028;2023-04-06T12:04:23;4.27;;;3.97;;
8413;SDS011;4244;48.684;9.028;2023-04-06T12:06:49;7.00;;;6.50;;
8413;SDS011;4244;48.684;9.028;2023-04-06T12:09:15;6.10;;;5.70;;
8413;SDS011;4244;48.684;9.028;2023-04-06T12:11:42;4.77;;;4.47;;
8413;SDS011;4244;48.684;9.028;2023-04-06T12:14:08;4.63;;;4.33;;
8413;SDS011;4244;48.684;9.028;2023-04-06T12:16:34;5.30;;;4.80;;
8413;SDS011;4244;48.684;9.028;2023-04-06T12:19:00;6.50;;;6.00;;
8413;SDS011;4244;48.684;9.028;2023-04-06T12:21:27;5.13;;;4.77;;
8413;SDS011;4244;48.684;9.028;2023-04-06T12:23:53;5.20;;;4.70;;
8413;SDS011;4244;48.684;9.028;2023-04-06T12:26:20;4.17;;;3.87;;
8413;SDS011;4244;48.684;9.028;2023-04-06T12:28:46;4.60;;;4.30;;
8413;SDS011;4244;48.684;9.028;2023-04-06T12:31:16;5.60;;;5.20;;
8413;SDS011;4244;48.684;9.028;2023-04-06T12:33:42;4.63;;;4.23;;
8413;SDS011;4244;48.684;9.028;2023-04-06T12:36:13;5.13;;;4.73;;
8413;SDS011;4244;48.684;9.028;2023-04-06T12:38:40;4.43;;;4.13;;
8413;SDS011;4244;48.684;9.028;2023-04-06T12:41:10;4.90;;;4.50;;
8413;SDS011;4244;48.684;9.028;2023-04-06T12:43:36;5.50;;;5.00;;
8413;SDS011;4244;48.684;9.028;2023-04-06T12:46:02;6.77;;;6.33;;
8413;SDS011;4244;48.684;9.028;2023-04-06T12:48:28;5.77;;;5.33;;
8413;SDS011;4244;48.684;9.028;2023-04-06T12:50:56;5.20;;;4.80;;
8413;SDS011;4244;48.684;9.028;2023-04-06T12:53:23;4.80;;;4.40;;
8413;SDS011;4244;48.684;9.028;2023-04-06T12:55:48;4.27;;;3.97;;
8413;SDS011;4244;48.684;9.028;2023-04-06T12:58:15;5.93;;;5.53;;
8413;SDS011;4244;48.684;9.028;2023-04-06T13:00:42;5.53;;;5.13;;
8413;SDS011;4244;48.684;9.028;2023-04-06T13:03:07;5.43;;;5.03;;
8413;SDS011;4244;48.684;9.028;2023-04-06T13:05:33;5.10;;;4.60;;
8413;SDS011;4244;48.684;9.028;2023-04-06T13:07:59;4.20;;;3.90;;
8413;SDS011;4244;48.684;9.028;2023-04-06T13:10:25;5.70;;;5.30;;
8413;SDS011;4244;48.684;9.028;2023-04-06T13:12:51;5.40;;;5.00;;
8413;SDS011;4244;48.684;9.028;2023-04-06T13:15:17;4.70;;;4.40;;
8413;SDS011;4244;48.684;9.028;2023-04-06T13:17:43;5.53;;;5.13;;
8413;SDS011;4244;48.684;9.028;2023-04-06T13:20:09;5.50;;;5.10;;
8413;SDS011;4244;48.684;9.028;2023-04-06T13:22:35;5.30;;;4.90;;
8413;SDS011;4244;48.684;9.028;2023-04-06T13:25:01;6.10;;;5.60;;
8413;SDS011;4244;48.684;9.028;2023-04-06T13:27:27;6.40;;;4.90;;
8413;SDS011;4244;48.684;9.028;2023-04-06T13:29:53;3.97;;;3.67;;
8413;SDS011;4244;48.684;9.028;2023-04-06T13:32:19;4.73;;;4.33;;
8413;SDS011;4244;48.684;9.028;2023-04-06T13:34:45;3.80;;;3.50;;
8413;SDS011;4244;48.684;9.028;2023-04-06T13:37:14;4.73;;;4.23;;
8413;SDS011;4244;48.684;9.028;2023-04-06T13:39:40;4.77;;;4.37;;
8413;SDS011;4244;48.684;9.028;2023-04-06T13:42:06;5.20;;;4.80;;
8413;SDS011;4244;48.684;9.028;2023-04-06T13:44:32;4.70;;;4.30;;
8413;SDS011;4244;48.684;9.028;2023-04-06T13:46:58;4.40;;;4.00;;
8413;SDS011;4244;48.684;9.028;2023-04-06T13:49:24;4.67;;;4.27;;
8413;SDS011;4244;48.684;9.028;2023-04-06T13:51:50;4.60;;;4.20;;
8413;SDS011;4244;48.684;9.028;2023-04-06T13:54:16;4.23;;;3.93;;
8413;SDS011;4244;48.684;9.028;2023-04-06T13:56:41;3.80;;;3.50;;
8413;SDS011;4244;48.684;9.028;2023-04-06T13:59:07;4.30;;;3.90;;
8413;SDS011;4244;48.684;9.028;2023-04-06T14:01:33;4.23;;;3.90;;
8413;SDS011;4244;48.684;9.028;2023-04-06T14:03:58;3.93;;;3.63;;
8413;SDS011;4244;48.684;9.028;2023-04-06T14:06:24;4.17;;;3.87;;
8413;SDS011;4244;48.684;9.028;2023-04-06T14:08:50;4.23;;;3.77;;
8413;SDS011;4244;48.684;9.028;2023-04-06T14:11:16;4.23;;;3.93;;
8413;SDS011;4244;48.684;9.028;2023-04-06T14:13:42;5.83;;;5.33;;
8413;SDS011;4244;48.684;9.028;2023-04-06T14:16:08;4.27;;;3.97;;
8413;SDS011;4244;48.684;9.028;2023-04-06T14:18:34;4.20;;;3.80;;
8413;SDS011;4244;48.684;9.028;2023-04-06T14:21:01;4.30;;;3.90;;
8413;SDS011;4244;48.684;9.028;2023-04-06T14:23:27;4.20;;;3.80;;
8413;SDS011;4244;48.684;9.028;2023-04-06T14:28:28;5.73;;;5.23;;
8413;SDS011;4244;48.684;9.028;2023-04-06T14:30:54;4.53;;;4.23;;
8413;SDS011;4244;48.684;9.028;2023-04-06T14:33:20;4.30;;;4.00;;
8413;SDS011;4244;48.684;9.028;2023-04-06T14:35:46;4.20;;;3.80;;
8413;SDS011;4244;48.684;9.028;2023-04-06T14:38:11;3.97;;;3.67;;
8413;SDS011;4244;48.684;9.028;2023-04-06T14:40:37;4.57;;;4.27;;
8413;SDS011;4244;48.684;9.028;2023-04-06T14:43:03;5.30;;;4.90;;
8413;SDS011;4244;48.684;9.028;2023-04-06T14:45:32;5.80;;;5.30;;
8413;SDS011;4244;48.684;9.028;2023-04-06T14:47:58;5.17;;;4.77;;
8413;SDS011;4244;48.684;9.028;2023-04-06T14:50:24;5.43;;;4.93;;
8413;SDS011;4244;48.684;9.028;2023-04-06T14:52:50;5.53;;;5.03;;
8413;SDS011;4244;48.684;9.028;2023-04-06T14:55:16;6.27;;;5.77;;
8413;SDS011;4244;48.684;9.028;2023-04-06T14:57:41;6.37;;;5.77;;
8413;SDS011;4244;48.684;9.028;2023-04-06T15:00:07;5.27;;;4.87;;
8413;SDS011;4244;48.684;9.028;2023-04-06T15:02:34;6.20;;;5.70;;
8413;SDS011;4244;48.684;9.028;2023-04-06T15:05:00;6.03;;;5.43;;
8413;SDS011;4244;48.684;9.028;2023-04-06T15:07:25;6.00;;;5.50;;
8413;SDS011;4244;48.684;9.028;2023-04-06T15:09:51;5.70;;;5.20;;
8413;SDS011;4244;48.684;9.028;2023-04-06T15:12:17;6.00;;;5.40;;
8413;SDS011;4244;48.684;9.028;2023-04-06T15:14:42;6.40;;;5.90;;
8413;SDS011;4244;48.684;9.028;2023-04-06T15:17:08;5.70;;;5.20;;